createdAt,value
2023-05-24T00:02:03.891Z,60.56
2023-05-24T00:05:08.160Z,60.32
2023-05-24T00:08:10.131Z,60.96
2023-05-24T00:11:11.958Z,61.34
2023-05-24T00:14:13.762Z,61.92
2023-05-24T00:17:15.594Z,61.98
2023-05-24T00:20:17.508Z,61.95
2023-05-24T00:23:19.399Z,61.93
2023-05-24T00:26:21.544Z,61.77
2023-05-24T00:29:32.202Z,62.01
2023-05-24T00:32:35.278Z,62.09
2023-05-24T00:35:38.380Z,62.27
2023-05-24T00:38:40.142Z,62.20
2023-05-24T00:41:41.922Z,62.11
2023-05-24T00:44:43.812Z,61.76
2023-05-24T00:47:46.892Z,61.70
2023-05-24T00:50:48.702Z,61.60
2023-05-24T00:53:50.804Z,61.49
2023-05-24T00:56:53.686Z,61.36
2023-05-24T00:59:56.878Z,61.23
2023-05-24T01:02:58.903Z,61.15
2023-05-24T01:06:06.466Z,61.00
2023-05-24T01:09:13.854Z,60.91
2023-05-24T01:12:26.196Z,61.12
2023-05-24T01:15:43.788Z,61.44
2023-05-24T01:18:52.855Z,61.40
2023-05-24T01:22:13.476Z,61.77
2023-05-24T01:25:42.683Z,61.89
2023-05-24T01:28:47.225Z,61.97
2023-05-24T01:31:50.523Z,62.17
2023-05-24T01:34:53.237Z,62.67
2023-05-24T01:37:55.069Z,63.61
2023-05-24T01:41:05.798Z,65.71
2023-05-24T01:44:27.729Z,67.24
2023-05-24T01:47:47.071Z,68.67
2023-05-24T01:50:57.877Z,69.67
2023-05-24T01:54:02.029Z,70.04
2023-05-24T01:57:07.819Z,70.19
2023-05-24T02:00:12.298Z,70.01
2023-05-24T02:03:17.241Z,69.97
2023-05-24T02:06:19.020Z,70.07
2023-05-24T02:09:21.007Z,69.97
2023-05-24T02:12:24.720Z,70.33
2023-05-24T02:15:30.534Z,70.23
2023-05-24T02:18:35.086Z,70.59
2023-05-24T02:21:37.108Z,70.45
2023-05-24T02:24:40.467Z,70.58
2023-05-24T02:27:47.144Z,70.78
2023-05-24T02:30:49.123Z,71.03
2023-05-24T02:33:51.217Z,71.84
2023-05-24T02:36:54.417Z,72.46
2023-05-24T02:39:56.404Z,72.73
2023-05-24T02:42:58.426Z,72.84
2023-05-24T02:46:00.399Z,73.26
2023-05-24T02:49:02.154Z,73.85
2023-05-24T02:52:04.633Z,74.26
2023-05-24T02:55:07.486Z,74.70
2023-05-24T02:58:10.220Z,75.14
2023-05-24T03:01:12.905Z,75.29
2023-05-24T03:04:15.226Z,75.33
2023-05-24T03:07:17.685Z,74.89
2023-05-24T03:10:19.627Z,74.49
2023-05-24T03:13:21.430Z,74.24
2023-05-24T03:16:23.245Z,74.69
2023-05-24T03:19:24.998Z,74.74
2023-05-24T03:22:27.092Z,74.82
2023-05-24T03:25:28.886Z,74.92
2023-05-24T03:28:30.648Z,74.92
2023-05-24T03:31:33.102Z,75.17
2023-05-24T03:34:35.232Z,75.51
2023-05-24T03:37:37.215Z,75.72
2023-05-24T03:40:39.256Z,75.89
2023-05-24T03:43:52.371Z,75.89
2023-05-24T03:46:54.954Z,76.01
2023-05-24T03:49:57.085Z,75.88
2023-05-24T03:52:59.080Z,76.04
2023-05-24T03:56:01.091Z,75.96
2023-05-24T03:59:04.218Z,76.09
2023-05-24T04:02:07.566Z,76.34
2023-05-24T04:05:12.380Z,75.94
2023-05-24T04:08:15.162Z,75.98
2023-05-24T04:11:17.683Z,75.97
2023-05-24T04:14:20.622Z,75.96
2023-05-24T04:17:24.899Z,76.00
2023-05-24T04:20:27.932Z,75.92
2023-05-24T04:23:29.819Z,75.83
2023-05-24T04:26:33.965Z,76.13
2023-05-24T04:29:35.912Z,75.96
2023-05-24T04:32:37.846Z,75.94
2023-05-24T04:35:40.802Z,75.98
2023-05-24T04:38:42.597Z,75.97
2023-05-24T04:41:45.716Z,76.03
2023-05-24T04:44:47.576Z,75.90
2023-05-24T04:47:49.431Z,75.95
2023-05-24T04:50:56.032Z,76.01
2023-05-24T04:53:57.803Z,75.66
2023-05-24T04:56:59.590Z,75.56
2023-05-24T05:00:02.192Z,75.66
2023-05-24T05:03:04.129Z,75.83
2023-05-24T05:06:06.123Z,75.59
2023-05-24T05:09:14.042Z,75.78
2023-05-24T05:12:16.225Z,75.43
2023-05-24T05:15:18.063Z,75.01
2023-05-24T05:18:19.924Z,75.27
2023-05-24T05:21:21.881Z,75.19
2023-05-24T05:24:23.694Z,75.37
2023-05-24T05:27:25.673Z,75.51
2023-05-24T05:30:27.497Z,75.01
2023-05-24T05:33:32.220Z,75.29
2023-05-24T05:36:34.073Z,75.16
2023-05-24T05:39:36.180Z,74.98
2023-05-24T05:42:37.969Z,75.17
2023-05-24T05:45:39.884Z,75.24
2023-05-24T05:48:41.809Z,75.10
2023-05-24T05:51:45.370Z,74.96
2023-05-24T05:54:47.176Z,74.98
2023-05-24T05:57:49.046Z,75.12
2023-05-24T06:00:51.274Z,75.43
2023-05-24T06:03:53.143Z,75.78
2023-05-24T06:06:55.065Z,75.63
2023-05-24T06:09:56.946Z,75.64
2023-05-24T06:12:58.732Z,76.32
2023-05-24T06:16:01.453Z,76.14
2023-05-24T06:19:06.304Z,75.50
2023-05-24T06:22:08.629Z,75.54
2023-05-24T06:25:10.565Z,75.61
2023-05-24T06:28:12.486Z,75.31
2023-05-24T06:31:14.348Z,75.25
2023-05-24T06:34:17.871Z,75.15
2023-05-24T06:37:25.076Z,74.82
2023-05-24T06:40:27.008Z,74.65
2023-05-24T06:43:28.752Z,74.79
2023-05-24T06:46:31.473Z,74.54
2023-05-24T06:49:33.410Z,74.44
2023-05-24T06:52:35.570Z,73.92
2023-05-24T06:55:37.691Z,73.86
2023-05-24T06:58:39.498Z,74.02
2023-05-24T07:01:43.166Z,74.09
2023-05-24T07:04:46.052Z,73.97
2023-05-24T07:07:48.176Z,73.46
2023-05-24T07:10:50.013Z,73.53
2023-05-24T07:13:51.842Z,73.81
2023-05-24T07:16:55.387Z,74.06
2023-05-24T07:19:57.570Z,74.22
2023-05-24T07:23:00.584Z,74.67
2023-05-24T07:26:02.478Z,74.75
2023-05-24T07:29:04.319Z,75.40
2023-05-24T07:32:06.335Z,75.86
2023-05-24T07:35:08.569Z,76.04
2023-05-24T07:38:10.592Z,75.53
2023-05-24T07:41:14.323Z,75.47
2023-05-24T07:44:16.111Z,75.31
2023-05-24T07:47:18.723Z,75.07
2023-05-24T07:50:20.426Z,74.93
2023-05-24T07:53:23.502Z,74.87
2023-05-24T07:56:25.714Z,74.45
2023-05-24T07:59:27.482Z,74.36
2023-05-24T08:02:31.473Z,74.31
2023-05-24T08:05:33.395Z,74.35
2023-05-24T08:08:35.773Z,74.19
2023-05-24T08:11:37.533Z,74.03
2023-05-24T08:14:39.344Z,74.22
2023-05-24T08:17:41.413Z,74.28
2023-05-24T08:20:43.373Z,73.98
2023-05-24T08:23:45.614Z,74.37
2023-05-24T08:26:47.613Z,74.23
2023-05-24T08:29:49.363Z,74.05
2023-05-24T08:32:52.465Z,73.79
2023-05-24T08:35:54.351Z,73.11
2023-05-24T08:38:56.316Z,72.40
2023-05-24T08:42:08.824Z,72.05
2023-05-24T08:45:13.679Z,71.58
2023-05-24T08:48:16.531Z,71.32
2023-05-24T08:51:18.853Z,71.08
2023-05-24T08:54:21.461Z,70.93
2023-05-24T08:57:23.827Z,70.87
2023-05-24T09:00:25.978Z,71.09
2023-05-24T09:03:28.208Z,71.11
2023-05-24T09:06:30.188Z,70.44
2023-05-24T09:09:34.636Z,69.83
2023-05-24T09:12:44.295Z,68.65
2023-05-24T09:15:46.594Z,68.87
2023-05-24T09:18:48.660Z,68.93
2023-05-24T09:21:50.540Z,68.79
2023-05-24T09:24:53.856Z,68.35
2023-05-24T09:27:56.527Z,68.42
2023-05-24T09:31:03.342Z,67.95
2023-05-24T09:34:11.665Z,67.42
2023-05-24T09:37:29.893Z,66.76
2023-05-24T09:40:34.509Z,66.46
2023-05-24T09:43:48.445Z,65.98
2023-05-24T09:46:50.427Z,65.17
2023-05-24T09:49:52.509Z,65.38
2023-05-24T09:52:56.209Z,65.11
2023-05-24T09:55:58.094Z,64.50
2023-05-24T09:59:06.133Z,63.92
2023-05-24T10:02:10.507Z,63.19
2023-05-24T10:05:13.431Z,63.73
2023-05-24T10:08:16.280Z,63.47
2023-05-24T10:11:19.184Z,62.63
2023-05-24T10:14:21.953Z,61.59
2023-05-24T10:17:28.134Z,60.61
2023-05-24T10:20:30.239Z,59.87
2023-05-24T10:23:33.526Z,59.36
2023-05-24T10:26:38.871Z,57.95
2023-05-24T10:29:46.723Z,56.60
2023-05-24T10:32:49.862Z,56.57
2023-05-24T10:35:53.615Z,56.24
2023-05-24T10:38:56.924Z,56.15
2023-05-24T10:42:03.034Z,56.12
2023-05-24T10:45:23.486Z,55.46
2023-05-24T10:48:28.246Z,53.88
2023-05-24T10:51:33.985Z,53.02
2023-05-24T10:54:44.709Z,53.26
2023-05-24T10:57:52.552Z,53.42
2023-05-24T11:00:54.360Z,53.23
2023-05-24T11:04:16.285Z,51.55
2023-05-24T11:07:19.449Z,50.98
2023-05-24T11:10:31.053Z,51.07
2023-05-24T11:13:33.675Z,52.33
2023-05-24T11:16:40.060Z,52.52
2023-05-24T11:19:52.302Z,52.54
2023-05-24T11:22:54.701Z,52.45
2023-05-24T11:25:57.306Z,52.33
2023-05-24T11:29:04.139Z,52.94
2023-05-24T11:32:07.922Z,52.31
2023-05-24T11:35:11.681Z,52.59
2023-05-24T11:38:15.755Z,52.77
2023-05-24T11:41:18.063Z,53.30
2023-05-24T11:44:20.112Z,53.24
2023-05-24T11:47:24.951Z,53.55
2023-05-24T11:50:28.589Z,53.77
2023-05-24T11:53:30.872Z,53.02
2023-05-24T11:56:34.152Z,53.39
2023-05-24T11:59:38.167Z,53.47
2023-05-24T12:02:40.378Z,53.12
2023-05-24T12:05:43.116Z,53.18
2023-05-24T12:08:45.151Z,54.14
2023-05-24T12:11:50.275Z,54.68
2023-05-24T12:14:55.848Z,55.16
2023-05-24T12:17:58.349Z,55.51
2023-05-24T12:21:00.217Z,55.15
2023-05-24T12:24:12.725Z,54.84
2023-05-24T12:27:14.510Z,55.07
2023-05-24T12:30:21.450Z,56.02
2023-05-24T12:33:24.465Z,56.24
2023-05-24T12:36:29.566Z,56.46
2023-05-24T12:39:32.414Z,56.62
2023-05-24T12:42:34.339Z,57.53
2023-05-24T12:45:37.322Z,57.52
2023-05-24T12:48:39.476Z,57.77
2023-05-24T12:51:41.232Z,58.37
2023-05-24T12:54:43.099Z,58.50
2023-05-24T12:57:53.164Z,58.73
2023-05-24T13:00:55.086Z,58.21
2023-05-24T13:03:57.312Z,58.69
2023-05-24T13:06:59.196Z,58.23
2023-05-24T13:10:01.048Z,57.92
2023-05-24T13:13:02.840Z,57.45
2023-05-24T13:16:08.971Z,56.92
2023-05-24T13:19:10.868Z,56.74
2023-05-24T13:22:13.050Z,56.56
2023-05-24T13:25:15.101Z,56.52
2023-05-24T13:28:17.131Z,56.21
2023-05-24T13:31:19.134Z,57.18
2023-05-24T13:34:21.049Z,58.10
2023-05-24T13:37:23.934Z,59.60
2023-05-24T13:40:26.332Z,60.56
2023-05-24T13:43:28.297Z,61.33
2023-05-24T13:46:30.477Z,62.04
2023-05-24T13:49:32.307Z,62.06
2023-05-24T13:52:34.220Z,62.33
2023-05-24T13:55:38.801Z,62.94
2023-05-24T13:58:40.722Z,63.38
2023-05-24T14:01:42.739Z,63.28
2023-05-24T14:04:44.565Z,63.83
2023-05-24T14:07:47.284Z,64.73
2023-05-24T14:10:50.124Z,65.29
2023-05-24T14:16:57.199Z,66.99
2023-05-24T14:19:59.154Z,67.71
2023-05-24T14:23:01.074Z,67.56
2023-05-24T14:26:02.922Z,67.67
2023-05-24T14:29:04.753Z,68.04
2023-05-24T14:32:06.740Z,68.07
2023-05-24T14:35:08.847Z,68.31
2023-05-24T14:38:11.572Z,68.20
2023-05-24T14:41:13.451Z,68.65
2023-05-24T14:44:15.272Z,69.08
2023-05-24T14:47:17.144Z,69.06
2023-05-24T14:50:18.991Z,69.25
2023-05-24T14:53:20.740Z,69.06
2023-05-24T14:56:23.089Z,69.03
2023-05-24T14:59:25.270Z,69.17
2023-05-24T15:02:27.891Z,68.83
2023-05-24T15:05:29.775Z,68.67
2023-05-24T15:08:31.787Z,68.87
2023-05-24T15:11:33.543Z,69.44
2023-05-24T15:14:35.335Z,69.76
2023-05-24T15:17:37.170Z,70.23
2023-05-24T15:20:39.093Z,70.31
2023-05-24T15:23:42.674Z,71.08
2023-05-24T15:26:44.528Z,71.25
2023-05-24T15:29:46.368Z,71.90
2023-05-24T15:32:48.190Z,71.82
2023-05-24T15:35:50.190Z,72.13
2023-05-24T15:38:52.046Z,72.49
2023-05-24T15:41:53.906Z,73.23
2023-05-24T15:44:55.959Z,73.34
2023-05-24T15:47:57.774Z,72.79
2023-05-24T15:51:53.824Z,72.97
2023-05-24T15:54:21.479Z,72.52
2023-05-24T15:57:23.268Z,72.57
2023-05-24T16:00:25.234Z,73.11
2023-05-24T16:03:27.046Z,73.44
2023-05-24T16:06:28.999Z,74.01
2023-05-24T16:09:31.249Z,73.87
2023-05-24T16:12:33.186Z,74.01
2023-05-24T16:15:36.180Z,74.24
2023-05-24T16:18:38.132Z,74.14
2023-05-24T16:21:40.008Z,73.63
2023-05-24T16:24:41.985Z,73.16
2023-05-24T16:27:43.906Z,72.79
2023-05-24T16:30:45.912Z,72.53
2023-05-24T16:33:47.761Z,72.07
2023-05-24T16:36:49.920Z,71.78
2023-05-24T16:39:51.720Z,72.06
2023-05-24T16:42:54.461Z,71.83
2023-05-24T16:45:56.401Z,71.42
2023-05-24T16:48:59.199Z,71.23
2023-05-24T16:52:02.205Z,71.01
2023-05-24T16:55:04.460Z,71.27
2023-05-24T16:58:06.687Z,71.11
2023-05-24T17:01:09.946Z,71.31
2023-05-24T17:04:11.868Z,70.95
2023-05-24T17:07:13.705Z,71.47
2023-05-24T17:10:15.442Z,71.63
2023-05-24T17:13:17.239Z,71.37
2023-05-24T17:16:19.364Z,71.08
2023-05-24T17:19:21.621Z,70.91
2023-05-24T17:22:23.380Z,70.21
2023-05-24T17:25:25.182Z,70.45
2023-05-24T17:28:27.879Z,70.29
2023-05-24T17:31:33.110Z,69.92
2023-05-24T17:34:59.070Z,69.43
2023-05-24T17:41:24.936Z,69.86
2023-05-24T17:44:29.651Z,69.91
2023-05-24T17:47:58.933Z,69.96
2023-05-24T17:51:23.304Z,69.45
2023-05-24T17:57:51.382Z,68.77
2023-05-24T18:04:44.929Z,68.19
2023-05-24T18:11:08.569Z,68.39
2023-05-24T18:14:10.882Z,68.12
2023-05-24T18:17:12.694Z,68.34
2023-05-24T18:20:15.384Z,68.55
2023-05-24T18:23:17.996Z,69.27
2023-05-24T18:26:19.751Z,69.82
2023-05-24T18:29:21.538Z,70.31
2023-05-24T18:32:23.547Z,70.36
2023-05-24T18:35:25.541Z,70.87
2023-05-24T18:38:27.365Z,71.32
2023-05-24T18:41:29.121Z,71.74
2023-05-24T18:44:30.962Z,71.62
2023-05-24T18:47:32.812Z,71.93
2023-05-24T18:50:34.755Z,72.53
2023-05-24T18:53:36.534Z,72.16
2023-05-24T18:56:38.340Z,71.96
2023-05-24T18:59:40.055Z,72.01
2023-05-24T19:02:41.998Z,71.64
2023-05-24T19:05:44.439Z,71.42
2023-05-24T19:08:46.384Z,71.62
2023-05-24T19:11:49.020Z,71.46
2023-05-24T19:14:50.907Z,71.88
2023-05-24T19:17:53.503Z,71.51
2023-05-24T19:20:55.352Z,71.54
2023-05-24T19:23:57.382Z,71.46
2023-05-24T19:27:01.287Z,71.62
2023-05-24T19:30:03.167Z,71.54
2023-05-24T19:33:05.235Z,71.96
2023-05-24T19:36:08.734Z,72.16
2023-05-24T19:39:12.566Z,72.56
2023-05-24T19:42:14.440Z,72.39
2023-05-24T19:45:16.471Z,72.46
2023-05-24T19:48:18.276Z,72.57
2023-05-24T19:51:27.924Z,72.09
2023-05-24T19:54:33.746Z,72.47
2023-05-24T19:57:35.908Z,72.25
2023-05-24T20:00:37.634Z,72.17
2023-05-24T20:03:39.785Z,72.27
2023-05-24T20:06:41.698Z,72.37
2023-05-24T20:09:43.511Z,72.74
2023-05-24T20:12:45.554Z,73.18
2023-05-24T20:15:47.344Z,73.51
2023-05-24T20:18:49.242Z,74.07
2023-05-24T20:21:51.044Z,74.38
2023-05-24T20:24:52.964Z,74.80
2023-05-24T20:27:54.779Z,75.07
2023-05-24T20:30:56.551Z,75.37
2023-05-24T20:33:58.547Z,75.99
2023-05-24T20:37:00.508Z,76.19
2023-05-24T20:40:05.275Z,76.33
2023-05-24T20:43:08.561Z,76.39
2023-05-24T20:46:10.830Z,76.90
2023-05-24T20:49:12.809Z,76.62
2023-05-24T20:52:16.286Z,76.54
2023-05-24T20:55:18.963Z,76.39
2023-05-24T20:58:20.819Z,76.26
2023-05-24T21:01:23.278Z,75.90
2023-05-24T21:04:26.568Z,75.78
2023-05-24T21:07:28.355Z,75.60
2023-05-24T21:10:30.326Z,75.39
2023-05-24T21:13:32.182Z,75.35
2023-05-24T21:16:34.070Z,75.38
2023-05-24T21:19:35.959Z,74.86
2023-05-24T21:22:37.724Z,75.04
2023-05-24T21:25:39.855Z,75.02
2023-05-24T21:28:41.727Z,75.20
2023-05-24T21:31:43.714Z,75.11
2023-05-24T21:34:45.685Z,75.36
2023-05-24T21:37:47.474Z,75.65
2023-05-24T21:40:49.339Z,75.84
2023-05-24T21:43:51.107Z,75.85
2023-05-24T21:46:53.014Z,75.91
2023-05-24T21:49:55.027Z,75.37
2023-05-24T21:52:56.920Z,75.78
2023-05-24T21:55:58.733Z,75.34
2023-05-24T21:59:00.583Z,75.50
2023-05-24T22:02:02.338Z,75.73
2023-05-24T22:05:05.421Z,75.86
2023-05-24T22:08:07.286Z,76.20
2023-05-24T22:11:09.140Z,76.15
2023-05-24T22:14:11.035Z,75.97
2023-05-24T22:17:14.307Z,76.25
2023-05-24T22:20:17.084Z,75.94
2023-05-24T22:23:18.876Z,75.96
2023-05-24T22:26:20.681Z,75.27
2023-05-24T22:29:22.591Z,75.56
2023-05-24T22:32:24.532Z,75.23
2023-05-24T22:35:26.407Z,75.56
2023-05-24T22:38:28.210Z,75.30
2023-05-24T22:41:30.146Z,75.26
2023-05-24T22:44:32.021Z,75.31
2023-05-24T22:47:34.069Z,75.41
2023-05-24T22:50:36.066Z,74.99
2023-05-24T22:53:39.669Z,74.88
2023-05-24T22:56:41.880Z,74.83
2023-05-24T22:59:45.980Z,74.73
2023-05-24T23:02:48.057Z,74.86
2023-05-24T23:05:53.657Z,74.95
2023-05-24T23:08:55.740Z,74.83
2023-05-24T23:11:58.658Z,74.73
2023-05-24T23:15:00.731Z,74.26
2023-05-24T23:18:03.128Z,74.48
2023-05-24T23:21:04.960Z,74.62
2023-05-24T23:24:07.178Z,74.80
2023-05-24T23:27:09.174Z,74.83
2023-05-24T23:30:11.128Z,74.89
2023-05-24T23:33:12.854Z,75.14
2023-05-24T23:36:14.603Z,75.16
2023-05-24T23:39:16.903Z,75.15
2023-05-24T23:42:18.692Z,75.44
2023-05-24T23:45:20.495Z,75.13
2023-05-24T23:48:23.456Z,75.22
2023-05-24T23:51:25.413Z,75.54
2023-05-24T23:54:27.189Z,75.45
2023-05-24T23:57:29.898Z,75.78
